CheckWX is a tool to help pilots better visualize weather data.  It is not intended as a substitute for an official pre-flight weather briefing.

22:41:43 UTC

KACV TAF
California Redwood Coast-Humboldt County Airport
Arcata/Eureka, California, USA
KACV 132333Z 1400/1424 31012KT P6SM SKC FM140400 16004KT P6SM BKN008 FM141000 VRB04KT 4SM BR OVC004 FM141600 26004KT 6SM BR BKN006 FM141900 33014KT P6SM SCT006

Jul-14@
00:00 UTC

Jul-14 @ 00:00 UTC

Jul-14@
04:00 UTC

Jul-14 @ 04:00 UTC

TAF KACV 132333Z 1400/1424 31012KT P6SM SKC

Expired

Wind
  • 310° at 12 KTS
Cloud Levels
  • Clear skies

Jul-14@
04:00 UTC

Jul-14 @ 04:00 UTC

Jul-14@
10:00 UTC

Jul-14 @ 10:00 UTC

FM140400 16004KT P6SM BKN008

Expired

Wind
  • 160° at 4 KTS
Cloud Levels
  • Broken at 800' AGL

Jul-14@
10:00 UTC

Jul-14 @ 10:00 UTC

Jul-14@
16:00 UTC

Jul-14 @ 16:00 UTC

FM141000 VRB04KT 4SM BR OVC004

Expired

Wind
  • Variable at 4 KTS
Conditions
Mist
Cloud Levels
  • Overcast at 400' AGL

Jul-14@
16:00 UTC

Jul-14 @ 16:00 UTC

Jul-14@
19:00 UTC

Jul-14 @ 19:00 UTC

FM141600 26004KT 6SM BR BKN006

Expired

Wind
  • 260° at 4 KTS
Conditions
Mist
Cloud Levels
  • Broken at 600' AGL

Jul-14@
19:00 UTC

Jul-14 @ 19:00 UTC

Jul-15@
00:00 UTC

Jul-15 @ 00:00 UTC

FM141900 33014KT P6SM SCT006

From

From Standard forecast or significant change

Wind
  • 330° at 14 KTS
Cloud Levels
  • Scattered at 600' AGL